createdAt,value
2018-09-20T00:00:09.198Z,5.43
2018-09-20T00:02:37.629Z,5.50
2018-09-20T00:05:06.421Z,5.83
2018-09-20T00:07:34.817Z,6.00
2018-09-20T00:10:03.620Z,5.30
2018-09-20T00:12:31.974Z,5.53
2018-09-20T00:15:00.412Z,5.27
2018-09-20T00:17:28.834Z,5.70
2018-09-20T00:19:57.243Z,5.23
2018-09-20T00:22:25.662Z,5.60
2018-09-20T00:24:54.058Z,5.40
2018-09-20T00:27:22.449Z,5.63
2018-09-20T00:29:50.797Z,5.33
2018-09-20T00:32:19.243Z,5.47
2018-09-20T00:34:47.613Z,5.23
2018-09-20T00:37:16.008Z,5.70
2018-09-20T00:39:44.408Z,5.50
2018-09-20T00:42:12.813Z,5.70
2018-09-20T00:44:41.240Z,5.77
2018-09-20T00:47:09.673Z,5.17
2018-09-20T00:49:38.104Z,5.60
2018-09-20T00:52:06.932Z,6.07
2018-09-20T00:54:35.315Z,5.60
2018-09-20T00:57:03.690Z,5.60
2018-09-20T00:59:32.080Z,5.40
2018-09-20T01:02:00.481Z,5.50
2018-09-20T01:04:28.869Z,5.40
2018-09-20T01:06:57.308Z,5.77
2018-09-20T01:09:25.715Z,5.50
2018-09-20T01:11:54.121Z,5.90
2018-09-20T01:14:22.534Z,5.63
2018-09-20T01:16:50.951Z,5.57
2018-09-20T01:19:19.373Z,5.43
2018-09-20T01:21:47.824Z,5.97
2018-09-20T01:24:16.256Z,5.87
2018-09-20T01:26:44.703Z,5.73
2018-09-20T01:29:13.097Z,5.90
2018-09-20T01:31:41.500Z,5.43
2018-09-20T01:34:09.904Z,5.20
2018-09-20T01:36:38.633Z,5.40
2018-09-20T01:39:12.723Z,5.70
2018-09-20T01:41:41.118Z,5.60
2018-09-20T01:44:09.551Z,5.10
2018-09-20T01:46:38.196Z,5.50
2018-09-20T01:49:07.640Z,6.37
2018-09-20T01:51:36.085Z,6.30
2018-09-20T01:54:04.477Z,5.90
2018-09-20T01:56:32.868Z,5.60
2018-09-20T01:59:01.296Z,5.67
2018-09-20T02:01:29.916Z,5.10
2018-09-20T02:03:58.372Z,5.43
2018-09-20T02:06:26.773Z,5.57
2018-09-20T02:08:55.165Z,5.60
2018-09-20T02:11:23.645Z,5.70
2018-09-20T02:13:52.011Z,5.57
2018-09-20T02:16:20.442Z,5.30
2018-09-20T02:18:48.831Z,5.53
2018-09-20T02:21:17.201Z,5.47
2018-09-20T02:23:45.598Z,5.67
2018-09-20T02:26:14.084Z,5.63
2018-09-20T02:28:42.490Z,5.83
2018-09-20T02:31:10.949Z,5.97
2018-09-20T02:33:39.356Z,5.63
2018-09-20T02:36:07.813Z,6.13
2018-09-20T02:38:36.184Z,5.33
2018-09-20T02:41:04.497Z,5.93
2018-09-20T02:43:32.907Z,5.93
2018-09-20T02:46:01.337Z,5.87
2018-09-20T02:48:30.062Z,5.63
2018-09-20T02:50:58.761Z,5.60
2018-09-20T02:53:27.189Z,5.50
2018-09-20T02:55:55.638Z,5.73
2018-09-20T02:58:24.073Z,6.40
2018-09-20T03:00:52.513Z,5.73
2018-09-20T03:03:20.889Z,5.90
2018-09-20T03:05:49.283Z,6.07
2018-09-20T03:08:17.642Z,5.57
2018-09-20T03:10:46.042Z,5.90
2018-09-20T03:13:14.480Z,6.30
2018-09-20T03:15:42.908Z,5.40
2018-09-20T03:18:11.276Z,6.17
2018-09-20T03:20:39.740Z,5.67
2018-09-20T03:23:08.140Z,5.73
2018-09-20T03:25:36.551Z,5.60
2018-09-20T03:28:04.958Z,6.07
2018-09-20T03:30:33.471Z,5.37
2018-09-20T03:33:01.950Z,5.70
2018-09-20T03:35:30.351Z,6.10
2018-09-20T03:37:58.806Z,5.80
2018-09-20T03:40:27.233Z,5.97
2018-09-20T03:42:55.674Z,6.13
2018-09-20T03:45:24.096Z,6.43
2018-09-20T03:47:52.553Z,5.87
2018-09-20T03:50:20.949Z,6.17
2018-09-20T03:52:49.422Z,6.23
2018-09-20T03:55:17.788Z,5.67
2018-09-20T03:57:46.197Z,5.67
2018-09-20T04:00:14.564Z,5.77
2018-09-20T04:02:43.032Z,5.93
2018-09-20T04:05:11.442Z,5.90
2018-09-20T04:07:39.867Z,6.37
2018-09-20T04:10:08.268Z,6.13
2018-09-20T04:12:36.664Z,6.00
2018-09-20T04:15:06.110Z,5.50
2018-09-20T04:17:34.475Z,6.00
2018-09-20T04:20:02.883Z,5.60
2018-09-20T04:22:31.375Z,6.07
2018-09-20T04:24:59.793Z,6.13
2018-09-20T04:27:28.172Z,6.10
2018-09-20T04:29:56.960Z,5.50
2018-09-20T04:32:25.419Z,6.07
2018-09-20T04:34:53.857Z,6.53
2018-09-20T04:37:22.254Z,5.83
2018-09-20T04:39:50.603Z,5.90
2018-09-20T04:42:19.052Z,6.00
2018-09-20T04:44:47.511Z,6.13
2018-09-20T04:47:15.934Z,6.40
2018-09-20T04:49:44.393Z,6.23
2018-09-20T04:52:12.793Z,5.97
2018-09-20T04:54:41.227Z,5.80
2018-09-20T04:57:09.669Z,5.90
2018-09-20T04:59:38.757Z,5.70
2018-09-20T05:02:07.270Z,6.57
2018-09-20T05:04:35.688Z,6.10
2018-09-20T05:07:04.454Z,6.47
2018-09-20T05:09:33.084Z,5.67
2018-09-20T05:12:01.659Z,6.23
2018-09-20T05:14:30.037Z,6.03
2018-09-20T05:16:58.452Z,6.20
2018-09-20T05:19:26.902Z,6.10
2018-09-20T05:21:55.331Z,6.37
2018-09-20T05:24:23.677Z,5.73
2018-09-20T05:26:52.149Z,6.00
2018-09-20T05:29:20.544Z,6.00
2018-09-20T05:31:48.877Z,6.33
2018-09-20T05:34:17.300Z,6.83
2018-09-20T05:36:45.715Z,6.03
2018-09-20T05:39:14.108Z,6.07
2018-09-20T05:41:42.489Z,6.00
2018-09-20T05:44:11.334Z,6.20
2018-09-20T05:46:40.477Z,6.60
2018-09-20T05:49:08.891Z,6.30
2018-09-20T05:51:37.703Z,6.33
2018-09-20T05:54:06.188Z,6.53
2018-09-20T05:56:34.612Z,6.27
2018-09-20T05:59:03.121Z,6.40
2018-09-20T06:01:31.576Z,6.80
2018-09-20T06:04:00.135Z,5.77
2018-09-20T06:06:28.559Z,6.40
2018-09-20T06:08:56.975Z,5.63
2018-09-20T06:11:25.368Z,6.13
2018-09-20T06:13:54.666Z,6.03
2018-09-20T06:16:23.113Z,5.43
2018-09-20T06:18:51.487Z,6.20
2018-09-20T06:21:19.830Z,6.33
2018-09-20T06:23:48.245Z,6.03
2018-09-20T06:26:16.656Z,5.67
2018-09-20T06:28:45.013Z,5.33
2018-09-20T06:31:13.455Z,5.43
2018-09-20T06:33:41.823Z,5.70
2018-09-20T06:36:10.214Z,5.30
2018-09-20T06:38:38.657Z,5.83
2018-09-20T06:41:07.083Z,5.20
2018-09-20T06:43:35.610Z,6.00
2018-09-20T06:46:03.999Z,5.90
2018-09-20T06:48:32.453Z,5.73
2018-09-20T06:51:00.849Z,5.80
2018-09-20T06:53:29.315Z,6.00
2018-09-20T06:55:57.725Z,5.70
2018-09-20T06:58:26.134Z,6.40
2018-09-20T07:00:54.552Z,5.73
2018-09-20T07:03:23.043Z,5.67
2018-09-20T07:05:51.605Z,6.10
2018-09-20T07:08:20.040Z,6.83
2018-09-20T07:10:48.420Z,5.87
2018-09-20T07:13:16.787Z,5.80
2018-09-20T07:15:45.196Z,5.40
2018-09-20T07:18:13.605Z,5.97
2018-09-20T07:20:42.015Z,5.60
2018-09-20T07:23:10.401Z,6.40
2018-09-20T07:25:38.891Z,6.47
2018-09-20T07:28:07.429Z,6.13
2018-09-20T07:30:35.825Z,5.73
2018-09-20T07:33:04.266Z,5.87
2018-09-20T07:35:32.638Z,6.20
2018-09-20T07:38:01.043Z,5.93
2018-09-20T07:40:29.467Z,6.33
2018-09-20T07:42:57.859Z,5.47
2018-09-20T07:45:26.456Z,6.40
2018-09-20T07:47:54.862Z,5.80
2018-09-20T07:50:23.250Z,6.10
2018-09-20T07:52:51.632Z,6.00
2018-09-20T07:55:20.009Z,6.37
2018-09-20T07:57:48.767Z,6.20
2018-09-20T08:00:17.177Z,6.93
2018-09-20T08:02:45.635Z,6.40
2018-09-20T08:05:14.013Z,6.90
2018-09-20T08:07:42.426Z,7.07
2018-09-20T08:10:10.882Z,7.00
2018-09-20T08:12:39.313Z,6.80
2018-09-20T08:15:07.682Z,6.53
2018-09-20T08:17:36.110Z,7.03
2018-09-20T08:20:04.710Z,6.70
2018-09-20T08:22:33.111Z,6.80
2018-09-20T08:25:01.510Z,7.47
2018-09-20T08:27:29.909Z,7.10
2018-09-20T08:29:58.317Z,7.47
2018-09-20T08:32:26.730Z,7.30
2018-09-20T08:34:55.280Z,6.80
2018-09-20T08:37:23.762Z,6.30
2018-09-20T08:39:52.333Z,6.93
2018-09-20T08:42:20.864Z,7.00
2018-09-20T08:44:49.440Z,7.60
2018-09-20T08:47:17.882Z,7.67
2018-09-20T08:49:46.573Z,6.97
2018-09-20T08:52:15.013Z,7.50
2018-09-20T08:54:43.410Z,6.77
2018-09-20T08:57:11.859Z,7.10
2018-09-20T08:59:40.420Z,7.10
2018-09-20T09:02:08.848Z,7.60
2018-09-20T09:04:37.335Z,7.40
2018-09-20T09:07:05.839Z,7.80
2018-09-20T09:09:34.636Z,7.27
2018-09-20T09:12:03.052Z,6.93
2018-09-20T09:14:31.676Z,6.77
2018-09-20T09:17:00.101Z,7.73
2018-09-20T09:19:28.527Z,7.63
2018-09-20T09:21:56.915Z,7.60
2018-09-20T09:24:25.312Z,7.50
2018-09-20T09:26:53.670Z,7.13
2018-09-20T09:29:22.083Z,7.33
2018-09-20T09:31:50.488Z,7.03
2018-09-20T09:34:19.041Z,6.90
2018-09-20T09:36:47.514Z,6.80
2018-09-20T09:39:15.949Z,6.77
2018-09-20T09:41:44.875Z,6.67
2018-09-20T09:44:13.270Z,7.20
2018-09-20T09:46:41.698Z,6.93
2018-09-20T09:49:10.123Z,7.20
2018-09-20T09:51:38.728Z,6.80
2018-09-20T09:54:07.494Z,7.03
2018-09-20T09:56:35.939Z,6.93
2018-09-20T09:59:04.321Z,7.60
2018-09-20T10:01:32.729Z,7.67
2018-09-20T10:04:01.105Z,7.60
2018-09-20T10:06:29.537Z,7.17
2018-09-20T10:08:58.252Z,7.27
2018-09-20T10:11:26.682Z,7.60
2018-09-20T10:13:55.134Z,7.20
2018-09-20T10:16:23.699Z,7.83
2018-09-20T10:18:52.100Z,8.83
2018-09-20T10:21:20.540Z,8.30
2018-09-20T10:23:48.932Z,9.53
2018-09-20T10:26:17.495Z,8.57
2018-09-20T10:28:45.933Z,8.30
2018-09-20T10:31:14.374Z,8.57
2018-09-20T10:33:42.987Z,7.73
2018-09-20T10:36:11.649Z,7.50
2018-09-20T10:38:40.053Z,7.10
2018-09-20T10:41:08.642Z,7.37
2018-09-20T10:43:37.026Z,7.23
2018-09-20T10:46:05.518Z,7.03
2018-09-20T10:48:34.191Z,7.73
2018-09-20T10:51:02.641Z,7.37
2018-09-20T10:53:31.065Z,7.43
2018-09-20T10:55:59.462Z,7.13
2018-09-20T10:58:27.836Z,6.87
2018-09-20T11:00:56.190Z,6.97
2018-09-20T11:03:24.865Z,6.60
2018-09-20T11:05:53.364Z,7.13
2018-09-20T11:08:21.746Z,6.90
2018-09-20T11:10:50.226Z,6.37
2018-09-20T11:13:18.830Z,6.20
2018-09-20T11:15:47.191Z,6.97
2018-09-20T11:18:15.569Z,6.40
2018-09-20T11:20:43.964Z,6.43
2018-09-20T11:23:12.320Z,6.10
2018-09-20T11:25:40.723Z,6.63
2018-09-20T11:28:09.172Z,6.10
2018-09-20T11:30:37.590Z,6.53
2018-09-20T11:33:06.361Z,6.73
2018-09-20T11:35:34.739Z,6.47
2018-09-20T11:38:03.131Z,6.33
2018-09-20T11:40:31.495Z,6.50
2018-09-20T11:42:59.893Z,6.27
2018-09-20T11:45:28.261Z,5.97
2018-09-20T11:47:56.672Z,6.33
2018-09-20T11:50:25.078Z,6.60
2018-09-20T11:52:53.495Z,6.40
2018-09-20T11:55:21.906Z,6.37
2018-09-20T11:57:50.320Z,6.30
2018-09-20T12:00:20.569Z,6.33
2018-09-20T12:02:49.911Z,5.90
2018-09-20T12:05:18.287Z,6.27
2018-09-20T12:07:46.762Z,5.83
2018-09-20T12:10:15.221Z,6.00
2018-09-20T12:12:43.697Z,6.83
2018-09-20T12:15:12.081Z,6.30
2018-09-20T12:17:40.525Z,5.70
2018-09-20T12:20:08.904Z,6.07
2018-09-20T12:22:37.369Z,5.60
2018-09-20T12:25:05.911Z,5.87
2018-09-20T12:27:34.303Z,6.47
2018-09-20T12:30:03.076Z,6.10
2018-09-20T12:32:31.473Z,6.20
2018-09-20T12:34:59.840Z,6.20
2018-09-20T12:37:33.605Z,6.30
2018-09-20T12:40:02.046Z,5.90
2018-09-20T12:42:30.421Z,6.07
2018-09-20T12:44:58.980Z,6.03
2018-09-20T12:47:27.699Z,5.47
2018-09-20T12:49:56.362Z,6.33
2018-09-20T12:52:24.849Z,6.20
2018-09-20T12:54:53.730Z,6.07
2018-09-20T12:57:22.518Z,6.43
2018-09-20T12:59:50.979Z,5.67
2018-09-20T13:02:19.372Z,6.00
2018-09-20T13:04:47.784Z,5.90
2018-09-20T13:07:16.190Z,6.23
2018-09-20T13:09:44.618Z,5.97
2018-09-20T13:12:13.024Z,5.70
2018-09-20T13:14:41.433Z,5.77
2018-09-20T13:17:09.942Z,6.23
2018-09-20T13:19:38.350Z,5.80
2018-09-20T13:22:06.762Z,6.00
2018-09-20T13:24:35.181Z,5.53
2018-09-20T13:27:03.586Z,5.70
2018-09-20T13:29:32.004Z,6.37
2018-09-20T13:32:00.710Z,6.17
2018-09-20T13:34:29.138Z,5.77
2018-09-20T13:36:57.586Z,5.87
2018-09-20T13:39:26.018Z,6.17
2018-09-20T13:41:54.428Z,5.50
2018-09-20T13:44:22.888Z,6.30
2018-09-20T13:46:51.637Z,6.20
2018-09-20T13:49:20.067Z,5.50
2018-09-20T13:51:48.579Z,5.70
2018-09-20T13:54:16.983Z,5.63
2018-09-20T13:56:45.634Z,6.00
2018-09-20T13:59:14.041Z,5.70
2018-09-20T14:01:42.461Z,5.63
2018-09-20T14:04:10.899Z,5.73
2018-09-20T14:06:39.450Z,6.00
2018-09-20T14:09:10.455Z,6.17
2018-09-20T14:11:39.709Z,6.30
2018-09-20T14:14:08.218Z,5.73
2018-09-20T14:16:36.611Z,6.07
2018-09-20T14:19:05.879Z,6.13
2018-09-20T14:21:34.403Z,6.10
2018-09-20T14:24:02.889Z,5.40
2018-09-20T14:26:31.291Z,5.70
2018-09-20T14:28:59.706Z,6.40
2018-09-20T14:31:28.126Z,6.20
2018-09-20T14:33:56.565Z,5.97
2018-09-20T14:36:24.944Z,5.63
2018-09-20T14:38:53.348Z,6.10
2018-09-20T14:41:21.753Z,5.93
2018-09-20T14:43:50.207Z,6.20
2018-09-20T14:46:18.640Z,6.43
2018-09-20T14:48:47.017Z,5.20
2018-09-20T14:51:15.425Z,5.77
2018-09-20T14:53:43.823Z,6.03
2018-09-20T14:56:12.244Z,5.93
2018-09-20T14:58:40.685Z,5.73
2018-09-20T15:01:09.077Z,5.80
2018-09-20T15:03:37.510Z,5.83
2018-09-20T15:06:06.026Z,5.73
2018-09-20T15:08:34.553Z,5.90
2018-09-20T15:11:03.120Z,5.73
2018-09-20T15:13:31.760Z,6.00
2018-09-20T15:16:00.140Z,6.33
2018-09-20T15:18:28.511Z,5.73
2018-09-20T15:20:56.930Z,6.50
2018-09-20T15:23:25.292Z,5.57
2018-09-20T15:25:53.697Z,5.67
2018-09-20T15:28:22.106Z,5.63
2018-09-20T15:30:50.493Z,6.07
2018-09-20T15:33:18.828Z,6.57
2018-09-20T15:35:47.230Z,6.87
2018-09-20T15:38:15.633Z,5.93
2018-09-20T15:40:43.994Z,5.80
2018-09-20T15:43:12.433Z,6.10
2018-09-20T15:45:40.832Z,5.77
2018-09-20T15:48:09.361Z,5.83
2018-09-20T15:50:37.767Z,6.47
2018-09-20T15:53:06.235Z,6.70
2018-09-20T15:55:34.594Z,6.33
2018-09-20T15:58:03.031Z,7.40
2018-09-20T16:00:31.466Z,6.50
2018-09-20T16:03:00.105Z,6.83
2018-09-20T16:05:28.527Z,7.17
2018-09-20T16:07:56.920Z,7.00
2018-09-20T16:10:25.254Z,6.70
2018-09-20T16:12:53.717Z,6.47
2018-09-20T16:15:22.160Z,6.60
2018-09-20T16:17:50.936Z,6.90
2018-09-20T16:20:19.343Z,5.80
2018-09-20T16:22:47.753Z,5.93
2018-09-20T16:25:16.198Z,6.33
2018-09-20T16:27:44.628Z,5.83
2018-09-20T16:30:37.038Z,6.20
2018-09-20T16:37:29.237Z,6.27
2018-09-20T16:39:59.423Z,5.57
2018-09-20T16:42:30.669Z,6.13
2018-09-20T16:44:59.107Z,6.03
2018-09-20T16:47:27.538Z,6.40
2018-09-20T16:49:55.937Z,5.93
2018-09-20T16:52:24.365Z,6.27
2018-09-20T16:54:52.769Z,5.70
2018-09-20T16:57:21.135Z,5.83
2018-09-20T16:59:49.573Z,5.97
2018-09-20T17:02:18.004Z,5.63
2018-09-20T17:04:46.432Z,5.80
2018-09-20T17:07:14.834Z,5.93
2018-09-20T17:09:43.441Z,5.60
2018-09-20T17:12:11.796Z,5.93
2018-09-20T17:14:40.217Z,5.80
2018-09-20T17:17:08.841Z,6.07
2018-09-20T17:19:37.228Z,5.83
2018-09-20T17:22:05.643Z,6.10
2018-09-20T17:24:34.035Z,6.30
2018-09-20T17:27:02.431Z,5.90
2018-09-20T17:29:30.829Z,5.77
2018-09-20T17:31:59.206Z,5.73
2018-09-20T17:34:27.907Z,6.30
2018-09-20T17:36:57.395Z,6.10
2018-09-20T17:39:26.972Z,6.60
2018-09-20T17:41:56.492Z,7.17
2018-09-20T17:44:24.903Z,7.00
2018-09-20T17:46:53.290Z,7.13
2018-09-20T17:49:21.670Z,6.70
2018-09-20T17:51:50.830Z,6.87
2018-09-20T17:54:19.656Z,6.80
2018-09-20T17:56:48.652Z,6.83
2018-09-20T17:59:17.035Z,6.43
2018-09-20T18:01:45.971Z,6.23
2018-09-20T18:04:14.388Z,6.63
2018-09-20T18:06:42.827Z,5.77
2018-09-20T18:09:11.211Z,5.43
2018-09-20T18:11:39.654Z,5.90
2018-09-20T18:14:08.053Z,5.80
2018-09-20T18:16:36.450Z,5.70
2018-09-20T18:19:04.865Z,5.53
2018-09-20T18:21:33.233Z,5.40
2018-09-20T18:24:01.570Z,5.07
2018-09-20T18:26:30.020Z,5.30
2018-09-20T18:28:58.362Z,5.33
2018-09-20T18:31:26.813Z,5.73
2018-09-20T18:33:55.257Z,5.53
2018-09-20T18:36:23.647Z,6.17
2018-09-20T18:38:52.003Z,5.90
2018-09-20T18:41:20.394Z,6.10
2018-09-20T18:43:48.863Z,6.73
2018-09-20T18:46:17.646Z,5.90
2018-09-20T18:48:46.051Z,5.40
2018-09-20T18:51:14.464Z,5.40
2018-09-20T18:53:42.825Z,5.60
2018-09-20T18:56:11.246Z,4.97
2018-09-20T18:58:39.645Z,5.20
2018-09-20T19:01:08.425Z,5.60
2018-09-20T19:03:36.941Z,5.17
2018-09-20T19:06:05.338Z,5.30
2018-09-20T19:08:33.770Z,5.17
2018-09-20T19:11:02.152Z,5.03
2018-09-20T19:13:30.621Z,5.27
2018-09-20T19:15:59.008Z,5.03
2018-09-20T19:18:27.392Z,5.13
2018-09-20T19:20:55.830Z,4.97
2018-09-20T19:23:24.210Z,5.00
2018-09-20T19:25:52.593Z,5.00
2018-09-20T19:28:21.016Z,5.20
2018-09-20T19:30:49.413Z,5.40
2018-09-20T19:33:17.822Z,5.77
2018-09-20T19:35:46.183Z,4.83
2018-09-20T19:38:14.645Z,5.00
2018-09-20T19:40:43.055Z,4.77
2018-09-20T19:43:12.042Z,5.50
2018-09-20T19:45:40.484Z,5.03
2018-09-20T19:48:08.892Z,5.20
2018-09-20T19:50:37.352Z,4.70
2018-09-20T19:53:05.798Z,4.60
2018-09-20T19:55:34.151Z,4.70
2018-09-20T19:58:02.592Z,5.03
2018-09-20T20:00:31.088Z,4.90
2018-09-20T20:02:59.653Z,4.53
2018-09-20T20:05:56.911Z,4.70
2018-09-20T20:08:25.429Z,5.30
2018-09-20T20:10:53.941Z,5.10
2018-09-20T20:13:22.486Z,4.77
2018-09-20T20:15:50.982Z,5.60
2018-09-20T20:18:19.517Z,4.70
2018-09-20T20:20:48.108Z,5.03
2018-09-20T20:23:16.593Z,4.60
2018-09-20T20:25:45.139Z,4.90
2018-09-20T20:28:13.673Z,5.17
2018-09-20T20:30:42.163Z,4.80
2018-09-20T20:33:10.627Z,5.53
2018-09-20T20:35:39.136Z,5.00
2018-09-20T20:38:07.624Z,5.20
2018-09-20T20:40:36.249Z,5.00
2018-09-20T20:43:05.189Z,5.43
2018-09-20T20:45:33.692Z,5.10
2018-09-20T20:48:02.160Z,5.43
2018-09-20T20:50:30.634Z,5.70
2018-09-20T20:52:59.182Z,5.40
2018-09-20T20:55:27.846Z,5.43
2018-09-20T20:57:56.338Z,5.97
2018-09-20T21:00:24.921Z,6.00
2018-09-20T21:02:53.697Z,6.77
2018-09-20T21:05:22.212Z,5.70
2018-09-20T21:07:50.722Z,6.37
2018-09-20T21:10:19.296Z,5.60
2018-09-20T21:12:47.751Z,5.87
2018-09-20T21:15:16.439Z,5.67
2018-09-20T21:17:44.898Z,5.50
2018-09-20T21:20:13.526Z,5.50
2018-09-20T21:22:41.972Z,5.27
2018-09-20T21:25:10.505Z,5.40
2018-09-20T21:27:38.976Z,5.60
2018-09-20T21:30:07.826Z,5.20
2018-09-20T21:32:36.321Z,5.10
2018-09-20T21:35:05.287Z,5.57
2018-09-20T21:37:33.775Z,5.30
2018-09-20T21:40:02.307Z,5.20
2018-09-20T21:42:30.838Z,5.37
2018-09-20T21:44:59.313Z,5.03
2018-09-20T21:47:28.026Z,5.70
2018-09-20T21:49:56.613Z,5.20
2018-09-20T21:52:25.763Z,5.33
2018-09-20T21:54:54.253Z,4.90
2018-09-20T21:57:22.749Z,5.40
2018-09-20T21:59:51.319Z,4.93
2018-09-20T22:02:25.688Z,4.93
2018-09-20T22:04:54.142Z,4.97
2018-09-20T22:07:22.738Z,5.70
2018-09-20T22:09:51.195Z,5.53
2018-09-20T22:12:19.769Z,5.03
2018-09-20T22:14:48.271Z,4.93
2018-09-20T22:17:16.812Z,5.07
2018-09-20T22:19:45.328Z,4.77
2018-09-20T22:22:13.846Z,5.57
2018-09-20T22:24:42.251Z,5.00
2018-09-20T22:27:10.846Z,5.10
2018-09-20T22:29:39.304Z,5.07
2018-09-20T22:32:07.846Z,5.27
2018-09-20T22:34:36.286Z,5.07
2018-09-20T22:37:04.946Z,5.00
2018-09-20T22:39:33.482Z,5.30
2018-09-20T22:42:02.506Z,4.97
2018-09-20T22:44:31.459Z,5.00
2018-09-20T22:46:59.919Z,4.97
2018-09-20T22:49:28.380Z,4.63
2018-09-20T22:51:56.954Z,4.83
2018-09-20T22:54:25.497Z,5.00
2018-09-20T22:56:54.057Z,4.70
2018-09-20T22:59:22.527Z,4.40
2018-09-20T23:01:51.048Z,4.70
2018-09-20T23:04:19.575Z,5.07
2018-09-20T23:06:48.149Z,4.80
2018-09-20T23:09:16.658Z,5.17
2018-09-20T23:11:45.175Z,5.10
2018-09-20T23:14:13.639Z,4.50
2018-09-20T23:16:42.215Z,4.87
2018-09-20T23:19:10.665Z,4.80
2018-09-20T23:21:39.280Z,5.30
2018-09-20T23:24:07.759Z,5.50
2018-09-20T23:26:36.284Z,4.97
2018-09-20T23:29:05.120Z,5.00
2018-09-20T23:31:33.611Z,4.87
2018-09-20T23:34:02.174Z,4.90
2018-09-20T23:36:31.023Z,5.10
2018-09-20T23:38:59.588Z,4.80
2018-09-20T23:41:28.122Z,4.73
2018-09-20T23:43:56.770Z,5.10
2018-09-20T23:46:25.359Z,4.60
2018-09-20T23:48:53.886Z,4.97
2018-09-20T23:51:22.345Z,4.13
2018-09-20T23:53:50.943Z,4.30
2018-09-20T23:56:19.558Z,4.50
2018-09-20T23:58:48.075Z,4.47
